Terminal Aerodrome Forecast
Issued by NWS Louisville, KY

Home | Current Version | Previous Version | Text Only | Print | Product List | Glossary On
Versions: 1 2 3 4 5 6 7 8 9 10 11 12 13 14 15 16
507
FTUS43 KLMK 251726
TAFSDF
TAF
KSDF 251726Z 2518/2624 28015G22KT P6SM OVC017
     FM252100 28012KT P6SM SCT035
     FM260600 23007KT P6SM FEW045
     FM262100 19007KT P6SM SCT070=

USA.gov is the U.S. government's official web portal to all federal, state and local government web resources and services.